createdAt,value
2023-05-16T00:00:33.648Z,0
2023-05-16T00:01:32.717Z,0
2023-05-16T00:02:32.898Z,0
2023-05-16T00:03:32.749Z,0
2023-05-16T00:04:32.719Z,0
2023-05-16T00:05:32.652Z,0
2023-05-16T00:06:32.686Z,0
2023-05-16T00:07:32.697Z,0
2023-05-16T00:08:32.630Z,0
2023-05-16T00:09:32.695Z,0
2023-05-16T00:10:33.903Z,0
2023-05-16T00:11:32.677Z,0
2023-05-16T00:12:32.677Z,0
2023-05-16T00:13:32.675Z,0
2023-05-16T00:14:32.662Z,0
2023-05-16T00:15:32.698Z,0
2023-05-16T00:16:32.654Z,0
2023-05-16T00:17:32.693Z,0
2023-05-16T00:18:32.722Z,0
2023-05-16T00:19:32.691Z,0
2023-05-16T00:20:32.679Z,0
2023-05-16T00:21:32.674Z,0
2023-05-16T00:22:32.742Z,0
2023-05-16T00:23:32.665Z,0
2023-05-16T00:24:32.651Z,0
2023-05-16T00:25:32.700Z,0
2023-05-16T00:26:32.688Z,0
2023-05-16T00:27:32.701Z,0
2023-05-16T00:28:32.644Z,0
2023-05-16T00:29:32.642Z,0
2023-05-16T00:30:33.540Z,0
2023-05-16T00:31:32.679Z,0
2023-05-16T00:32:32.699Z,0
2023-05-16T00:33:32.626Z,0
2023-05-16T00:34:32.779Z,0
2023-05-16T00:35:32.673Z,0
2023-05-16T00:36:32.681Z,0
2023-05-16T00:37:32.651Z,0
2023-05-16T00:38:32.646Z,0
2023-05-16T00:39:32.662Z,0
2023-05-16T00:40:32.729Z,0
2023-05-16T00:41:32.695Z,0
2023-05-16T00:42:32.676Z,0
2023-05-16T00:43:32.694Z,0
2023-05-16T00:44:32.669Z,0
2023-05-16T00:45:32.654Z,0
2023-05-16T00:46:32.724Z,0
2023-05-16T00:47:32.734Z,0
2023-05-16T00:48:32.716Z,0
2023-05-16T00:49:32.671Z,0
2023-05-16T00:50:32.656Z,0
2023-05-16T00:51:32.692Z,0
2023-05-16T00:52:32.655Z,0
2023-05-16T00:53:32.643Z,0
2023-05-16T00:54:32.711Z,0
2023-05-16T00:55:32.649Z,0
2023-05-16T00:56:32.675Z,0
2023-05-16T00:57:32.670Z,0
2023-05-16T00:58:32.651Z,0
2023-05-16T00:59:32.650Z,0
2023-05-16T01:00:33.547Z,0
2023-05-16T01:01:32.647Z,0
2023-05-16T01:02:32.698Z,0
2023-05-16T01:03:32.815Z,0
2023-05-16T01:04:32.695Z,0
2023-05-16T01:05:32.690Z,0
2023-05-16T01:06:32.635Z,0
2023-05-16T01:07:32.702Z,0
2023-05-16T01:08:32.679Z,0
2023-05-16T01:09:32.655Z,0
2023-05-16T01:10:33.360Z,0
2023-05-16T01:11:32.671Z,0
2023-05-16T01:12:32.661Z,0
2023-05-16T01:13:32.646Z,0
2023-05-16T01:14:32.727Z,0
2023-05-16T01:15:32.680Z,0
2023-05-16T01:16:32.702Z,0
2023-05-16T01:17:32.700Z,0
2023-05-16T01:18:32.709Z,0
2023-05-16T01:19:32.773Z,0
2023-05-16T01:20:32.694Z,0
2023-05-16T01:21:32.656Z,0
2023-05-16T01:22:32.662Z,0
2023-05-16T01:23:32.656Z,0
2023-05-16T01:24:32.664Z,0
2023-05-16T01:25:32.678Z,0
2023-05-16T01:26:32.717Z,0
2023-05-16T01:27:32.674Z,0
2023-05-16T01:28:32.703Z,0
2023-05-16T01:29:32.642Z,0
2023-05-16T01:30:32.647Z,0
2023-05-16T01:31:32.735Z,0
2023-05-16T01:32:32.766Z,0
2023-05-16T01:33:32.686Z,0
2023-05-16T01:34:32.626Z,0
2023-05-16T01:35:32.719Z,0
2023-05-16T01:36:32.659Z,0
2023-05-16T01:37:32.633Z,0
2023-05-16T01:38:32.684Z,0
2023-05-16T01:39:32.638Z,0
2023-05-16T01:40:32.814Z,0
2023-05-16T01:41:32.827Z,0
2023-05-16T01:42:32.832Z,0
2023-05-16T01:43:32.825Z,0
2023-05-16T01:44:32.858Z,0
2023-05-16T01:45:32.824Z,0
2023-05-16T01:46:32.801Z,0
2023-05-16T01:47:32.808Z,0
2023-05-16T01:48:32.803Z,0
2023-05-16T01:49:32.849Z,0
2023-05-16T01:50:33.847Z,0
2023-05-16T01:51:32.741Z,0
2023-05-16T01:52:32.856Z,0
2023-05-16T01:53:32.741Z,0
2023-05-16T01:54:32.783Z,0
2023-05-16T01:55:32.811Z,0
2023-05-16T01:56:32.798Z,0
2023-05-16T01:57:32.828Z,0
2023-05-16T01:58:32.753Z,0
2023-05-16T01:59:32.667Z,0
2023-05-16T02:00:33.649Z,0
2023-05-16T02:01:32.822Z,0
2023-05-16T02:02:33.000Z,0
2023-05-16T02:03:32.779Z,0
2023-05-16T02:04:32.671Z,0
2023-05-16T02:05:32.706Z,0
2023-05-16T02:06:32.730Z,0
2023-05-16T02:07:32.631Z,0
2023-05-16T02:08:32.620Z,0
2023-05-16T02:09:32.650Z,0
2023-05-16T02:10:32.619Z,0
2023-05-16T02:11:32.650Z,0
2023-05-16T02:12:32.627Z,0
2023-05-16T02:13:32.667Z,0
2023-05-16T02:14:32.651Z,0
2023-05-16T02:15:32.624Z,0
2023-05-16T02:16:32.745Z,0
2023-05-16T02:17:32.708Z,0
2023-05-16T02:18:32.670Z,0
2023-05-16T02:19:32.654Z,0
2023-05-16T02:20:33.637Z,0
2023-05-16T02:21:32.666Z,0
2023-05-16T02:22:32.664Z,0
2023-05-16T02:23:32.701Z,0
2023-05-16T02:24:32.741Z,0
2023-05-16T02:25:32.651Z,0
2023-05-16T02:26:32.648Z,0
2023-05-16T02:27:32.665Z,0
2023-05-16T02:28:32.657Z,0
2023-05-16T02:29:32.647Z,0
2023-05-16T02:30:32.643Z,0
2023-05-16T02:31:32.774Z,0
2023-05-16T02:32:32.663Z,0
2023-05-16T02:33:32.668Z,0
2023-05-16T02:34:32.627Z,0
2023-05-16T02:35:32.623Z,0
2023-05-16T02:36:32.641Z,0
2023-05-16T02:37:32.688Z,0
2023-05-16T02:38:32.667Z,0
2023-05-16T02:39:32.629Z,0
2023-05-16T02:40:33.362Z,0
2023-05-16T02:41:32.657Z,0
2023-05-16T02:42:32.653Z,0
2023-05-16T02:43:32.679Z,0
2023-05-16T02:44:32.645Z,0
2023-05-16T02:45:32.633Z,0
2023-05-16T02:46:32.702Z,0.36
2023-05-16T02:47:32.670Z,0
2023-05-16T02:48:32.697Z,0
2023-05-16T02:49:32.656Z,0
2023-05-16T02:50:32.656Z,0.85
2023-05-16T02:51:32.644Z,1.22
2023-05-16T02:52:32.644Z,1.22
2023-05-16T02:53:32.614Z,0.36
2023-05-16T02:54:32.627Z,1.71
2023-05-16T02:55:32.702Z,1.22
2023-05-16T02:56:32.674Z,1.71
2023-05-16T02:57:32.686Z,1.71
2023-05-16T02:58:32.671Z,1.71
2023-05-16T02:59:32.669Z,1.22
2023-05-16T03:00:33.758Z,1.71
2023-05-16T03:01:32.710Z,1.71
2023-05-16T03:02:32.809Z,2.57
2023-05-16T03:03:32.859Z,2.57
2023-05-16T03:04:32.778Z,2.08
2023-05-16T03:05:32.993Z,2.08
2023-05-16T03:06:32.673Z,2.08
2023-05-16T03:07:32.642Z,2.57
2023-05-16T03:08:32.665Z,2.57
2023-05-16T03:09:32.635Z,2.57
2023-05-16T03:10:32.678Z,2.08
2023-05-16T03:11:32.841Z,2.57
2023-05-16T03:12:32.636Z,2.94
2023-05-16T03:13:32.635Z,3.43
2023-05-16T03:14:32.746Z,2.94
2023-05-16T03:15:32.754Z,2.94
2023-05-16T03:16:32.718Z,3.43
2023-05-16T03:17:32.727Z,3.43
2023-05-16T03:18:32.809Z,3.79
2023-05-16T03:19:32.682Z,3.43
2023-05-16T03:20:32.706Z,2.94
2023-05-16T03:21:32.806Z,2.94
2023-05-16T03:22:32.695Z,3.43
2023-05-16T03:23:32.747Z,3.43
2023-05-16T03:24:32.825Z,3.43
2023-05-16T03:25:32.786Z,3.79
2023-05-16T03:26:32.770Z,2.94
2023-05-16T03:27:32.624Z,3.43
2023-05-16T03:28:32.808Z,3.79
2023-05-16T03:29:32.642Z,4.28
2023-05-16T03:30:33.442Z,4.28
2023-05-16T03:31:32.841Z,4.28
2023-05-16T03:32:32.630Z,4.28
2023-05-16T03:33:32.799Z,5.14
2023-05-16T03:34:32.646Z,3.79
2023-05-16T03:35:32.763Z,3.79
2023-05-16T03:36:32.790Z,3.43
2023-05-16T03:37:32.639Z,3.79
2023-05-16T03:38:32.700Z,4.28
2023-05-16T03:39:32.675Z,4.28
2023-05-16T03:40:34.175Z,4.77
2023-05-16T03:41:36.749Z,5.99
2023-05-16T03:42:40.665Z,7.7
2023-05-16T03:43:44.791Z,8.56
2023-05-16T03:44:48.765Z,8.56
2023-05-16T03:45:52.686Z,9.91
2023-05-16T03:46:56.635Z,10.39
2023-05-16T03:48:00.717Z,10.77
2023-05-16T03:49:04.603Z,10.77
2023-05-16T03:50:08.731Z,11.25
2023-05-16T03:51:12.774Z,9.91
2023-05-16T03:52:17.055Z,10.77
2023-05-16T03:53:20.604Z,9.91
2023-05-16T03:54:24.640Z,10.39
2023-05-16T03:55:28.782Z,10.77
2023-05-16T03:56:32.648Z,9.91
2023-05-16T03:57:32.685Z,10.39
2023-05-16T03:58:32.663Z,10.77
2023-05-16T03:59:32.813Z,9.54
2023-05-16T04:00:32.602Z,9.54
2023-05-16T04:01:32.693Z,9.05
2023-05-16T04:02:32.738Z,9.54
2023-05-16T04:03:32.658Z,8.56
2023-05-16T04:04:32.591Z,8.19
2023-05-16T04:05:32.708Z,8.19
2023-05-16T04:06:32.637Z,8.56
2023-05-16T04:07:32.666Z,7.7
2023-05-16T04:08:32.606Z,7.7
2023-05-16T04:09:32.622Z,8.56
2023-05-16T04:10:33.669Z,8.19
2023-05-16T04:11:32.620Z,8.56
2023-05-16T04:12:32.605Z,7.7
2023-05-16T04:13:32.813Z,8.19
2023-05-16T04:14:32.640Z,8.19
2023-05-16T04:15:32.656Z,8.19
2023-05-16T04:16:32.667Z,8.56
2023-05-16T04:17:32.743Z,8.56
2023-05-16T04:18:32.669Z,8.56
2023-05-16T04:19:32.670Z,8.19
2023-05-16T04:20:33.052Z,8.19
2023-05-16T04:21:32.630Z,7.34
2023-05-16T04:22:32.700Z,7.7
2023-05-16T04:23:32.695Z,7.34
2023-05-16T04:24:32.575Z,6.85
2023-05-16T04:25:32.639Z,5.63
2023-05-16T04:26:32.652Z,5.14
2023-05-16T04:27:32.693Z,4.28
2023-05-16T04:28:32.541Z,4.77
2023-05-16T04:29:32.642Z,4.77
2023-05-16T04:30:32.594Z,4.28
2023-05-16T04:31:32.726Z,4.77
2023-05-16T04:32:32.647Z,5.14
2023-05-16T04:33:32.641Z,5.14
2023-05-16T04:34:32.630Z,5.63
2023-05-16T04:35:32.657Z,6.48
2023-05-16T04:36:32.543Z,7.7
2023-05-16T04:37:32.650Z,7.34
2023-05-16T04:38:32.646Z,8.56
2023-05-16T04:39:32.684Z,8.56
2023-05-16T04:40:32.549Z,9.05
2023-05-16T04:41:32.651Z,7.7
2023-05-16T04:42:32.691Z,9.05
2023-05-16T04:43:32.637Z,8.19
2023-05-16T04:44:32.549Z,7.34
2023-05-16T04:45:32.615Z,5.99
2023-05-16T04:46:32.667Z,7.34
2023-05-16T04:47:32.855Z,6.85
2023-05-16T04:48:32.526Z,6.48
2023-05-16T04:49:32.608Z,7.7
2023-05-16T04:50:33.564Z,8.19
2023-05-16T04:51:32.674Z,8.19
2023-05-16T04:52:32.541Z,7.7
2023-05-16T04:53:32.652Z,7.7
2023-05-16T04:54:32.671Z,7.7
2023-05-16T04:55:32.652Z,7.34
2023-05-16T04:56:32.540Z,8.19
2023-05-16T04:57:32.655Z,7.34
2023-05-16T04:58:32.618Z,7.7
2023-05-16T04:59:32.670Z,8.56
2023-05-16T05:00:33.324Z,8.56
2023-05-16T05:01:32.673Z,12.11
2023-05-16T05:02:32.714Z,11.62
2023-05-16T05:03:32.645Z,9.91
2023-05-16T05:04:32.500Z,7.34
2023-05-16T05:05:33.056Z,7.34
2023-05-16T05:06:32.692Z,6.85
2023-05-16T05:07:32.662Z,7.7
2023-05-16T05:08:32.470Z,8.56
2023-05-16T05:09:32.633Z,9.54
2023-05-16T05:10:32.609Z,10.77
2023-05-16T05:11:32.634Z,11.25
2023-05-16T05:12:33.452Z,11.25
2023-05-16T05:13:36.505Z,11.25
2023-05-16T05:14:40.511Z,11.62
2023-05-16T05:15:44.559Z,12.48
2023-05-16T05:16:48.534Z,12.11
2023-05-16T05:17:52.621Z,12.97
2023-05-16T05:18:56.665Z,12.48
2023-05-16T05:20:02.847Z,13.33
2023-05-16T05:21:04.471Z,13.33
2023-05-16T05:22:08.491Z,14.31
2023-05-16T05:23:12.486Z,13.82
2023-05-16T05:24:16.489Z,14.31
2023-05-16T05:25:20.477Z,13.82
2023-05-16T05:26:24.491Z,14.68
2023-05-16T05:27:28.505Z,14.68
2023-05-16T05:28:32.529Z,15.53
2023-05-16T05:29:32.625Z,14.31
2023-05-16T05:30:32.792Z,13.33
2023-05-16T05:31:32.652Z,14.68
2023-05-16T05:32:32.517Z,15.53
2023-05-16T05:33:32.612Z,14.68
2023-05-16T05:34:32.644Z,16.02
2023-05-16T05:35:32.664Z,16.39
2023-05-16T05:36:32.462Z,15.53
2023-05-16T05:37:32.652Z,16.02
2023-05-16T05:38:32.700Z,15.53
2023-05-16T05:39:32.754Z,15.17
2023-05-16T05:40:32.412Z,14.31
2023-05-16T05:41:32.793Z,12.97
2023-05-16T05:42:32.639Z,12.11
2023-05-16T05:43:32.651Z,12.48
2023-05-16T05:44:32.632Z,12.97
2023-05-16T05:45:32.701Z,12.97
2023-05-16T05:46:33.745Z,13.82
2023-05-16T05:47:44.513Z,15.17
2023-05-16T05:48:48.412Z,15.53
2023-05-16T05:49:52.518Z,17.25
2023-05-16T05:50:56.495Z,16.39
2023-05-16T05:52:00.506Z,16.39
2023-05-16T05:53:04.475Z,16.88
2023-05-16T05:54:08.461Z,17.25
2023-05-16T05:55:12.521Z,16.88
2023-05-16T05:56:16.494Z,18.11
2023-05-16T05:57:20.423Z,18.6
2023-05-16T05:58:24.458Z,18.11
2023-05-16T05:59:28.421Z,17.73
2023-05-16T06:00:32.417Z,16.88
2023-05-16T06:01:32.643Z,16.88
2023-05-16T06:02:32.692Z,16.88
2023-05-16T06:03:32.727Z,17.25
2023-05-16T06:04:32.461Z,18.11
2023-05-16T06:05:32.659Z,18.6
2023-05-16T06:06:32.679Z,20.31
2023-05-16T06:07:32.657Z,21.65
2023-05-16T06:08:32.441Z,22.02
2023-05-16T06:09:32.609Z,22.51
2023-05-16T06:10:33.967Z,22.87
2023-05-16T06:11:33.557Z,24.22
2023-05-16T06:12:48.451Z,23.36
2023-05-16T06:13:52.431Z,23.36
2023-05-16T06:14:56.366Z,24.22
2023-05-16T06:16:00.504Z,24.71
2023-05-16T06:17:04.421Z,22.51
2023-05-16T06:18:08.527Z,22.02
2023-05-16T06:19:12.533Z,26.79
2023-05-16T06:20:16.465Z,33.76
2023-05-16T06:21:20.384Z,35.97
2023-05-16T06:22:24.404Z,36.82
2023-05-16T06:23:28.428Z,37.19
2023-05-16T06:24:32.436Z,37.68
2023-05-16T06:25:32.633Z,39.39
2023-05-16T06:26:32.625Z,39.39
2023-05-16T06:27:32.632Z,33.39
2023-05-16T06:28:32.450Z,31.19
2023-05-16T06:29:32.631Z,30.7
2023-05-16T06:30:32.664Z,30.34
2023-05-16T06:31:32.650Z,29.85
2023-05-16T06:32:32.427Z,28.99
2023-05-16T06:33:32.752Z,29.48
2023-05-16T06:34:32.678Z,28.63
2023-05-16T06:35:32.700Z,27.65
2023-05-16T06:36:32.395Z,23.85
2023-05-16T06:37:32.685Z,22.51
2023-05-16T06:38:32.661Z,18.6
2023-05-16T06:39:32.611Z,21.16
2023-05-16T06:40:32.369Z,20.31
2023-05-16T06:41:33.419Z,18.11
2023-05-16T06:42:32.617Z,19.45
2023-05-16T06:43:32.624Z,19.45
2023-05-16T06:44:32.336Z,17.73
2023-05-16T06:45:32.635Z,16.39
2023-05-16T06:46:32.660Z,22.51
2023-05-16T06:47:32.699Z,20.31
2023-05-16T06:48:32.403Z,16.88
2023-05-16T06:49:32.617Z,11.62
2023-05-16T06:50:32.637Z,7.7
2023-05-16T06:51:32.658Z,6.48
2023-05-16T06:52:32.384Z,8.56
2023-05-16T06:53:32.607Z,12.97
2023-05-16T06:54:32.689Z,16.88
2023-05-16T06:55:32.653Z,15.53
2023-05-16T06:56:32.396Z,13.33
2023-05-16T06:57:32.693Z,12.48
2023-05-16T06:58:32.616Z,14.31
2023-05-16T06:59:32.621Z,16.02
2023-05-16T07:00:32.351Z,16.88
2023-05-16T07:01:32.774Z,16.88
2023-05-16T07:02:32.773Z,16.02
2023-05-16T07:03:32.733Z,16.02
2023-05-16T07:04:32.561Z,16.02
2023-05-16T07:05:32.626Z,15.53
2023-05-16T07:06:32.647Z,16.88
2023-05-16T07:07:32.716Z,19.45
2023-05-16T07:08:32.340Z,25.07
2023-05-16T07:09:32.651Z,27.28
2023-05-16T07:10:33.992Z,27.28
2023-05-16T07:11:32.636Z,26.79
2023-05-16T07:12:32.362Z,28.99
2023-05-16T07:13:35.735Z,29.48
2023-05-16T07:14:32.614Z,29.48
2023-05-16T07:15:32.635Z,28.63
2023-05-16T07:16:32.421Z,26.42
2023-05-16T07:17:32.729Z,24.71
2023-05-16T07:18:32.631Z,22.51
2023-05-16T07:19:33.618Z,19.45
2023-05-16T07:20:32.482Z,18.6
2023-05-16T07:21:32.689Z,19.45
2023-05-16T07:22:32.628Z,22.51
2023-05-16T07:23:32.611Z,27.28
2023-05-16T07:24:32.334Z,31.56
2023-05-16T07:25:32.653Z,34.25
2023-05-16T07:26:32.630Z,38.53
2023-05-16T07:27:32.614Z,41.96
2023-05-16T07:28:32.381Z,45.51
2023-05-16T07:29:32.651Z,47.71
2023-05-16T07:30:32.762Z,50.28
2023-05-16T07:31:32.672Z,52.85
2023-05-16T07:32:32.364Z,55.05
2023-05-16T07:33:32.608Z,55.41
2023-05-16T07:34:32.605Z,58.48
2023-05-16T07:35:32.660Z,57.25
2023-05-16T07:36:32.362Z,60.68
2023-05-16T07:37:32.606Z,62.39
2023-05-16T07:38:32.633Z,64.1
2023-05-16T07:39:32.643Z,65.94
2023-05-16T07:40:32.306Z,66.8
2023-05-16T07:41:32.642Z,65.45
2023-05-16T07:42:32.640Z,68.87
2023-05-16T07:43:32.611Z,67.16
2023-05-16T07:44:32.329Z,57.62
2023-05-16T07:45:32.654Z,57.62
2023-05-16T07:46:32.660Z,53.7
2023-05-16T07:47:32.672Z,62.39
2023-05-16T07:48:32.273Z,69.73
2023-05-16T07:49:32.625Z,75.48
2023-05-16T07:50:32.608Z,78.41
2023-05-16T07:51:32.626Z,71.93
2023-05-16T07:52:32.299Z,84.04
2023-05-16T07:53:32.586Z,88.45
2023-05-16T07:54:32.618Z,75.48
2023-05-16T07:55:32.650Z,67.65
2023-05-16T07:56:32.284Z,75.48
2023-05-16T07:57:32.647Z,78.05
2023-05-16T07:58:32.688Z,65.45
2023-05-16T07:59:32.605Z,68.02
2023-05-16T08:00:32.315Z,83.68
2023-05-16T08:01:32.598Z,94.93
2023-05-16T08:02:32.702Z,102.27
2023-05-16T08:03:32.861Z,101.9
2023-05-16T08:04:32.241Z,89.79
2023-05-16T08:05:32.627Z,97.5
2023-05-16T08:06:32.630Z,103.61
2023-05-16T08:07:32.608Z,106.19
2023-05-16T08:08:32.263Z,110.96
2023-05-16T08:09:32.634Z,94.93
2023-05-16T08:10:32.715Z,87.59
2023-05-16T08:11:32.679Z,87.1
2023-05-16T08:12:32.272Z,100.19
2023-05-16T08:13:32.666Z,114.02
2023-05-16T08:14:32.658Z,111.82
2023-05-16T08:15:32.619Z,110.96
2023-05-16T08:16:32.376Z,110.59
2023-05-16T08:17:32.647Z,107.04
2023-05-16T08:18:32.695Z,106.68
2023-05-16T08:19:32.622Z,105.33
2023-05-16T08:20:32.254Z,97.5
2023-05-16T08:21:32.592Z,90.65
2023-05-16T08:22:32.624Z,110.59
2023-05-16T08:23:32.613Z,114.02
2023-05-16T08:24:32.235Z,123.19
2023-05-16T08:25:32.695Z,127.1
2023-05-16T08:26:32.614Z,114.87
2023-05-16T08:27:32.634Z,96.65
2023-05-16T08:28:32.231Z,91.02
2023-05-16T08:29:32.633Z,84.53
2023-05-16T08:30:33.056Z,81.97
2023-05-16T08:31:32.694Z,77.19
2023-05-16T08:32:32.249Z,67.16
2023-05-16T08:33:32.629Z,58.11
2023-05-16T08:34:32.692Z,63.73
2023-05-16T08:35:32.664Z,61.53
2023-05-16T08:36:32.284Z,58.48
2023-05-16T08:37:32.595Z,65.94
2023-05-16T08:38:32.640Z,70.22
2023-05-16T08:39:32.607Z,69.36
2023-05-16T08:40:32.232Z,64.96
2023-05-16T08:41:32.609Z,64.59
2023-05-16T08:42:32.608Z,69.36
2023-05-16T08:43:32.605Z,68.87
2023-05-16T08:44:32.231Z,75.48
2023-05-16T08:45:32.669Z,74.14
2023-05-16T08:46:32.647Z,68.51
2023-05-16T08:47:32.658Z,54.56
2023-05-16T08:48:32.216Z,43.31
2023-05-16T08:49:32.603Z,38.53
2023-05-16T08:50:32.605Z,39.02
2023-05-16T08:51:32.652Z,33.76
2023-05-16T08:52:32.237Z,33.39
2023-05-16T08:53:32.623Z,45.87
2023-05-16T08:54:32.656Z,58.48
2023-05-16T08:55:32.649Z,57.62
2023-05-16T08:56:32.225Z,54.56
2023-05-16T08:57:32.642Z,59.33
2023-05-16T08:58:32.611Z,58.97
2023-05-16T08:59:32.620Z,57.62
2023-05-16T09:00:32.179Z,64.59
2023-05-16T09:01:32.712Z,70.22
2023-05-16T09:02:32.680Z,72.42
2023-05-16T09:03:32.613Z,81.1
2023-05-16T09:04:32.322Z,81.1
2023-05-16T09:05:32.719Z,79.27
2023-05-16T09:06:32.621Z,81.48
2023-05-16T09:07:32.595Z,73.28
2023-05-16T09:08:32.135Z,67.65
2023-05-16T09:09:32.569Z,62.88
2023-05-16T09:10:33.068Z,55.41
2023-05-16T09:11:33.333Z,51.14
2023-05-16T09:12:32.184Z,59.33
2023-05-16T09:13:32.598Z,66.31
2023-05-16T09:14:32.617Z,68.02
2023-05-16T09:15:32.619Z,67.65
2023-05-16T09:16:32.307Z,68.87
2023-05-16T09:17:40.028Z,56.76
2023-05-16T09:18:32.798Z,45.87
2023-05-16T09:19:32.712Z,48.93
2023-05-16T09:20:33.168Z,68.02
2023-05-16T09:21:32.637Z,46.73
2023-05-16T09:22:32.679Z,55.41
2023-05-16T09:23:33.420Z,48.93
2023-05-16T09:24:32.176Z,50.65
2023-05-16T09:25:32.828Z,58.11
2023-05-16T09:26:32.599Z,51.99
2023-05-16T09:27:32.582Z,46.73
2023-05-16T09:28:32.181Z,43.8
2023-05-16T09:29:32.580Z,40.24
2023-05-16T09:30:32.621Z,35.97
2023-05-16T09:31:32.692Z,40.24
2023-05-16T09:32:32.175Z,45.51
2023-05-16T09:33:32.676Z,49.79
2023-05-16T09:34:32.578Z,54.19
2023-05-16T09:35:44.303Z,53.34
2023-05-16T09:36:32.137Z,52.48
2023-05-16T09:37:32.622Z,45.51
2023-05-16T09:38:32.629Z,41.96
2023-05-16T09:39:32.624Z,41.96
2023-05-16T09:40:32.116Z,52.48
2023-05-16T09:41:32.618Z,60.68
2023-05-16T09:42:32.653Z,62.88
2023-05-16T09:43:33.580Z,58.48
2023-05-16T09:44:32.185Z,64.1
2023-05-16T09:45:32.640Z,69.73
2023-05-16T09:46:32.697Z,74.99
2023-05-16T09:47:32.714Z,62.39
2023-05-16T09:48:32.155Z,66.31
2023-05-16T09:49:32.607Z,78.41
2023-05-16T09:50:33.941Z,83.19
2023-05-16T09:51:32.683Z,71.56
2023-05-16T09:52:32.103Z,52.48
2023-05-16T09:53:32.594Z,35.97
2023-05-16T09:54:32.724Z,39.02
2023-05-16T09:55:32.606Z,56.27
2023-05-16T09:56:32.125Z,49.79
2023-05-16T09:57:33.056Z,48.93
2023-05-16T09:58:32.620Z,54.19
2023-05-16T09:59:32.590Z,45.87
2023-05-16T10:00:32.160Z,43.8
2023-05-16T10:01:32.811Z,41.59
2023-05-16T10:02:32.707Z,38.17
2023-05-16T10:03:32.710Z,45.51
2023-05-16T10:04:32.125Z,55.41
2023-05-16T10:05:32.600Z,49.42
2023-05-16T10:06:32.623Z,42.45
2023-05-16T10:07:32.597Z,40.24
2023-05-16T10:08:32.110Z,42.45
2023-05-16T10:09:32.595Z,52.48
2023-05-16T10:10:33.645Z,58.97
2023-05-16T10:11:32.618Z,64.59
2023-05-16T10:12:32.302Z,58.11
2023-05-16T10:13:32.627Z,57.62
2023-05-16T10:14:32.592Z,64.1
2023-05-16T10:15:32.613Z,69.36
2023-05-16T10:16:32.135Z,71.93
2023-05-16T10:17:32.772Z,74.5
2023-05-16T10:18:32.673Z,71.07
2023-05-16T10:19:32.660Z,72.42
2023-05-16T10:20:32.057Z,75.85
2023-05-16T10:21:32.570Z,90.65
2023-05-16T10:22:32.584Z,101.9
2023-05-16T10:23:32.586Z,107.9
2023-05-16T10:24:32.021Z,110.1
2023-05-16T10:25:32.815Z,114.02
2023-05-16T10:26:32.625Z,101.9
2023-05-16T10:27:32.607Z,94.56
2023-05-16T10:28:32.019Z,101.9
2023-05-16T10:29:39.991Z,104.96
2023-05-16T10:30:32.766Z,90.16
2023-05-16T10:31:32.618Z,88.45
2023-05-16T10:32:32.087Z,81.1
2023-05-16T10:33:32.611Z,91.51
2023-05-16T10:34:32.580Z,106.68
2023-05-16T10:35:32.587Z,99.34
2023-05-16T10:36:32.055Z,88.82
2023-05-16T10:37:32.570Z,89.31
2023-05-16T10:38:32.671Z,94.93
2023-05-16T10:39:32.597Z,77.56
2023-05-16T10:40:32.047Z,78.9
2023-05-16T10:41:32.587Z,76.7
2023-05-16T10:42:32.573Z,66.31
2023-05-16T10:43:32.607Z,55.9
2023-05-16T10:44:32.000Z,49.79
2023-05-16T10:45:32.955Z,48.07
2023-05-16T10:46:32.815Z,50.65
2023-05-16T10:47:32.740Z,46.36
2023-05-16T10:48:32.064Z,41.1
2023-05-16T10:49:32.591Z,41.1
2023-05-16T10:50:32.596Z,41.1
2023-05-16T10:51:32.638Z,42.45
2023-05-16T10:52:32.031Z,41.1
2023-05-16T10:53:32.646Z,38.53
2023-05-16T10:54:34.033Z,35.97
2023-05-16T10:55:32.603Z,34.25
2023-05-16T10:56:32.048Z,31.56
2023-05-16T10:57:32.597Z,29.85
2023-05-16T10:58:32.590Z,30.34
2023-05-16T10:59:32.576Z,27.65
2023-05-16T11:00:31.998Z,31.19
2023-05-16T11:01:32.660Z,33.39
2023-05-16T11:02:32.762Z,30.34
2023-05-16T11:03:32.681Z,29.85
2023-05-16T11:04:32.023Z,28.63
2023-05-16T11:05:32.599Z,28.99
2023-05-16T11:06:32.563Z,28.14
2023-05-16T11:07:32.579Z,27.65
2023-05-16T11:08:31.991Z,27.28
2023-05-16T11:09:32.571Z,25.94
2023-05-16T11:10:32.598Z,26.79
2023-05-16T11:11:32.616Z,28.99
2023-05-16T11:12:32.040Z,33.76
2023-05-16T11:13:32.586Z,35.97
2023-05-16T11:14:33.089Z,41.1
2023-05-16T11:15:32.583Z,41.1
2023-05-16T11:16:32.033Z,39.39
2023-05-16T11:17:32.659Z,41.59
2023-05-16T11:18:32.740Z,38.17
2023-05-16T11:19:32.625Z,40.73
2023-05-16T11:20:31.963Z,41.59
2023-05-16T11:21:32.619Z,41.59
2023-05-16T11:22:32.572Z,38.17
2023-05-16T11:23:32.586Z,35.11
2023-05-16T11:24:31.989Z,32.9
2023-05-16T11:25:32.616Z,31.56
2023-05-16T11:26:32.639Z,29.48
2023-05-16T11:27:32.654Z,28.99
2023-05-16T11:28:31.984Z,28.14
2023-05-16T11:29:32.626Z,27.65
2023-05-16T11:30:32.621Z,25.94
2023-05-16T11:31:32.662Z,25.56
2023-05-16T11:32:32.645Z,25.07
2023-05-16T11:33:32.599Z,24.71
2023-05-16T11:34:32.581Z,24.22
2023-05-16T11:35:32.566Z,22.02
2023-05-16T11:36:31.981Z,23.36
2023-05-16T11:37:32.629Z,24.22
2023-05-16T11:38:32.611Z,24.71
2023-05-16T11:39:32.679Z,25.56
2023-05-16T11:40:31.934Z,25.56
2023-05-16T11:41:32.584Z,25.07
2023-05-16T11:42:32.605Z,25.94
2023-05-16T11:43:32.640Z,26.42
2023-05-16T11:44:31.949Z,27.28
2023-05-16T11:45:32.580Z,26.79
2023-05-16T11:46:32.615Z,28.99
2023-05-16T11:47:32.668Z,30.34
2023-05-16T11:48:36.259Z,30.7
2023-05-16T11:49:32.594Z,30.34
2023-05-16T11:50:33.831Z,28.14
2023-05-16T11:51:32.590Z,27.28
2023-05-16T11:52:31.926Z,27.28
2023-05-16T11:53:32.635Z,27.28
2023-05-16T11:54:32.574Z,30.34
2023-05-16T11:55:41.730Z,33.39
2023-05-16T11:56:32.583Z,39.39
2023-05-16T11:57:33.330Z,45.02
2023-05-16T11:58:32.592Z,54.56
2023-05-16T11:59:32.571Z,63.73
2023-05-16T12:00:32.559Z,70.22
2023-05-16T12:01:32.643Z,71.56
2023-05-16T12:02:32.766Z,71.07
2023-05-16T12:03:32.726Z,72.79
2023-05-16T12:04:32.787Z,72.79
2023-05-16T12:05:33.191Z,72.42
2023-05-16T12:06:32.595Z,71.56
2023-05-16T12:07:32.658Z,66.8
2023-05-16T12:08:32.585Z,60.68
2023-05-16T12:09:32.571Z,55.9
2023-05-16T12:10:33.821Z,52.48
2023-05-16T12:11:32.673Z,49.42
2023-05-16T12:12:32.608Z,48.56
2023-05-16T12:13:32.567Z,45.87
2023-05-16T12:14:32.588Z,45.02
2023-05-16T12:15:32.621Z,47.22
2023-05-16T12:16:32.593Z,49.42
2023-05-16T12:17:32.718Z,47.71
2023-05-16T12:18:32.619Z,45.51
2023-05-16T12:19:32.735Z,41.1
2023-05-16T12:20:32.558Z,37.68
2023-05-16T12:21:32.571Z,35.48
2023-05-16T12:22:32.667Z,33.76
2023-05-16T12:23:32.606Z,32.9
2023-05-16T12:24:32.652Z,32.9
2023-05-16T12:25:32.708Z,32.9
2023-05-16T12:26:32.579Z,34.62
2023-05-16T12:27:32.593Z,34.25
2023-05-16T12:28:32.616Z,33.39
2023-05-16T12:29:32.621Z,32.9
2023-05-16T12:30:32.966Z,32.42
2023-05-16T12:31:32.932Z,33.39
2023-05-16T12:32:32.748Z,33.76
2023-05-16T12:33:32.798Z,34.25
2023-05-16T12:34:32.582Z,33.76
2023-05-16T12:35:32.589Z,33.39
2023-05-16T12:36:32.583Z,32.42
2023-05-16T12:37:32.571Z,31.19
2023-05-16T12:38:32.698Z,31.19
2023-05-16T12:39:34.919Z,31.56
2023-05-16T12:40:32.773Z,32.05
2023-05-16T12:41:32.574Z,32.05
2023-05-16T12:42:32.581Z,32.42
2023-05-16T12:43:32.598Z,32.42
2023-05-16T12:44:32.621Z,32.05
2023-05-16T12:45:35.222Z,31.56
2023-05-16T12:46:32.652Z,32.05
2023-05-16T12:47:32.738Z,32.05
2023-05-16T12:48:32.611Z,31.19
2023-05-16T12:49:32.612Z,32.05
2023-05-16T12:50:33.747Z,32.9
2023-05-16T12:51:34.723Z,34.25
2023-05-16T12:52:32.561Z,35.97
2023-05-16T12:53:32.652Z,35.97
2023-05-16T12:54:32.697Z,35.11
2023-05-16T12:55:32.568Z,33.76
2023-05-16T12:56:32.688Z,33.39
2023-05-16T12:57:34.379Z,33.76
2023-05-16T12:58:32.664Z,34.62
2023-05-16T12:59:32.583Z,37.19
2023-05-16T13:00:33.543Z,39.88
2023-05-16T13:01:32.649Z,42.45
2023-05-16T13:02:34.290Z,45.02
2023-05-16T13:03:35.280Z,44.65
2023-05-16T13:04:32.620Z,41.96
2023-05-16T13:05:32.670Z,40.24
2023-05-16T13:06:48.852Z,39.02
2023-05-16T13:07:32.616Z,39.39
2023-05-16T13:08:32.594Z,38.53
2023-05-16T13:09:33.202Z,37.68
2023-05-16T13:10:32.652Z,36.33
2023-05-16T13:11:32.607Z,36.33
2023-05-16T13:12:32.558Z,39.88
2023-05-16T13:13:36.310Z,41.59
2023-05-16T13:14:32.708Z,45.02
2023-05-16T13:15:32.734Z,48.56
2023-05-16T13:16:32.610Z,52.85
2023-05-16T13:17:32.623Z,56.76
2023-05-16T13:18:32.637Z,65.94
2023-05-16T13:19:32.583Z,77.19
2023-05-16T13:20:32.619Z,81.97
2023-05-16T13:21:32.583Z,84.53
2023-05-16T13:22:32.678Z,88.45
2023-05-16T13:23:32.648Z,83.19